createdAt,value
2019-05-01T00:00:16.364Z,3.237
2019-05-01T00:03:15.010Z,2.675
2019-05-01T00:06:15.791Z,4.750
2019-05-01T00:09:15.407Z,2.538
2019-05-01T00:12:15.497Z,2.650
2019-05-01T00:15:15.088Z,3.862
2019-05-01T00:18:15.855Z,2.625
2019-05-01T00:21:15.598Z,5.412
2019-05-01T00:24:15.122Z,3.225
2019-05-01T00:27:15.885Z,3.787
2019-05-01T00:30:15.602Z,2.737
2019-05-01T00:33:15.893Z,2.275
2019-05-01T00:36:15.335Z,3.775
2019-05-01T00:39:15.730Z,5.562
2019-05-01T00:42:15.252Z,5.238
2019-05-01T00:45:15.685Z,5.350
2019-05-01T00:48:15.131Z,4.787
2019-05-01T00:51:15.658Z,3.688
2019-05-01T00:54:15.370Z,4.088
2019-05-01T00:57:15.071Z,2.312
2019-05-01T01:00:15.601Z,2.800
2019-05-01T01:03:14.987Z,3.737
2019-05-01T01:06:15.492Z,2.150
2019-05-01T01:09:14.973Z,2.513
2019-05-01T01:12:15.406Z,2.100
2019-05-01T01:15:15.011Z,2.475
2019-05-01T01:18:15.657Z,2.625
2019-05-01T01:21:15.291Z,2.562
2019-05-01T01:24:15.828Z,2.587
2019-05-01T01:27:15.103Z,1.925
2019-05-01T01:30:14.941Z,2.975
2019-05-01T01:33:15.717Z,2.600
2019-05-01T01:36:15.202Z,4.275
2019-05-01T01:39:15.872Z,1.250
2019-05-01T01:42:15.351Z,2.987
2019-05-01T01:45:15.489Z,3.250
2019-05-01T01:48:15.873Z,3.700
2019-05-01T01:51:15.691Z,2.000
2019-05-01T01:54:15.455Z,4.463
2019-05-01T01:57:14.934Z,4.425
2019-05-01T02:00:15.673Z,3.975
2019-05-01T02:03:15.100Z,3.588
2019-05-01T02:06:15.041Z,3.838
2019-05-01T02:09:15.590Z,4.200
2019-05-01T02:12:15.222Z,3.650
2019-05-01T02:15:15.436Z,3.750
2019-05-01T02:18:15.184Z,4.100
2019-05-01T02:21:15.858Z,3.337
2019-05-01T02:24:15.705Z,3.125
2019-05-01T02:27:15.242Z,2.050
2019-05-01T02:30:15.533Z,5.312
2019-05-01T02:33:16.067Z,3.562
2019-05-01T02:36:15.688Z,3.387
2019-05-01T02:39:14.922Z,3.312
2019-05-01T02:42:14.885Z,5.125
2019-05-01T02:45:15.139Z,2.075
2019-05-01T02:48:15.698Z,3.788
2019-05-01T02:51:15.169Z,4.725
2019-05-01T02:54:15.338Z,3.750
2019-05-01T02:57:26.533Z,4.750
2019-05-01T03:00:35.405Z,2.750
2019-05-01T03:03:19.367Z,2.950
2019-05-01T03:06:18.928Z,3.013
2019-05-01T03:09:14.907Z,3.450
2019-05-01T03:12:15.059Z,4.900
2019-05-01T03:15:15.455Z,5.950
2019-05-01T03:18:14.972Z,4.737
2019-05-01T03:21:15.879Z,3.100
2019-05-01T03:24:15.470Z,4.388
2019-05-01T03:27:14.949Z,4.362
2019-05-01T03:30:15.760Z,3.613
2019-05-01T03:33:15.702Z,3.663
2019-05-01T03:36:15.409Z,3.500
2019-05-01T03:39:15.122Z,4.562
2019-05-01T03:42:15.558Z,3.237
2019-05-01T03:45:15.298Z,4.037
2019-05-01T03:48:15.149Z,2.062
2019-05-01T03:51:15.171Z,1.887
2019-05-01T03:54:14.987Z,3.025
2019-05-01T03:57:15.510Z,4.450
2019-05-01T04:00:15.340Z,4.287
2019-05-01T04:03:15.564Z,4.037
2019-05-01T04:06:15.764Z,4.287
2019-05-01T04:09:15.377Z,1.525
2019-05-01T04:12:15.125Z,4.525
2019-05-01T04:15:15.153Z,4.150
2019-05-01T04:18:15.249Z,4.250
2019-05-01T04:21:15.313Z,3.863
2019-05-01T04:24:15.553Z,5.975
2019-05-01T04:27:15.029Z,3.275
2019-05-01T04:30:15.116Z,4.037
2019-05-01T04:33:15.550Z,5.225
2019-05-01T04:36:15.849Z,3.712
2019-05-01T04:39:15.075Z,4.862
2019-05-01T04:42:15.637Z,3.400
2019-05-01T04:45:15.499Z,5.150
2019-05-01T04:48:15.323Z,4.075
2019-05-01T04:51:15.544Z,2.925
2019-05-01T04:54:15.738Z,5.300
2019-05-01T04:57:15.025Z,5.550
2019-05-01T05:00:15.302Z,7.813
2019-05-01T05:03:15.345Z,5.750
2019-05-01T05:06:15.308Z,4.387
2019-05-01T05:09:15.049Z,7.425
2019-05-01T05:12:15.620Z,9.550
2019-05-01T05:15:15.864Z,14.812
2019-05-01T05:18:15.186Z,17.325
2019-05-01T05:21:15.441Z,15.787
2019-05-01T05:24:15.545Z,7.550
2019-05-01T05:27:15.160Z,12.488
2019-05-01T05:30:15.202Z,10.750
2019-05-01T05:33:18.623Z,6.250
2019-05-01T05:36:15.945Z,9.575
2019-05-01T05:39:15.707Z,4.737
2019-05-01T05:48:15.376Z,11.175
2019-05-01T05:51:15.312Z,6.637
2019-05-01T05:54:15.188Z,10.350
2019-05-01T05:57:15.133Z,6.475
2019-05-01T06:00:15.321Z,7.188
2019-05-01T06:03:15.236Z,7.662
2019-05-01T06:06:15.521Z,7.775
2019-05-01T06:09:15.896Z,4.562
2019-05-01T06:12:17.023Z,6.562
2019-05-01T06:15:15.520Z,4.112
2019-05-01T06:18:23.607Z,4.500
2019-05-01T06:21:17.074Z,4.375
2019-05-01T06:24:15.415Z,7.975
2019-05-01T06:27:15.564Z,5.262
2019-05-01T06:30:15.805Z,8.575
2019-05-01T06:33:15.362Z,4.637
2019-05-01T06:36:15.444Z,4.875
2019-05-01T06:39:15.250Z,6.200
2019-05-01T06:42:16.923Z,12.675
2019-05-01T06:45:16.881Z,12.775
2019-05-01T06:48:17.802Z,8.400
2019-05-01T06:51:17.883Z,6.688
2019-05-01T06:54:16.204Z,6.412
2019-05-01T06:57:15.810Z,9.950
2019-05-01T07:00:15.623Z,7.800
2019-05-01T07:03:15.234Z,13.712
2019-05-01T07:06:14.891Z,8.600
2019-05-01T07:09:27.304Z,6.800
2019-05-01T07:12:15.352Z,9.938
2019-05-01T07:15:15.670Z,10.175
2019-05-01T07:18:18.961Z,9.537
2019-05-01T07:21:14.859Z,11.625
2019-05-01T07:24:15.118Z,8.850
2019-05-01T07:27:18.879Z,4.875
2019-05-01T07:30:15.838Z,10.075
2019-05-01T07:33:16.730Z,9.450
2019-05-01T07:36:16.512Z,10.988
2019-05-01T07:39:15.904Z,9.188
2019-05-01T07:42:15.042Z,10.963
2019-05-01T07:45:15.541Z,9.787
2019-05-01T07:48:15.728Z,10.963
2019-05-01T07:51:15.135Z,10.350
2019-05-01T07:54:15.088Z,13.425
2019-05-01T07:57:15.568Z,10.887
2019-05-01T08:00:15.492Z,10.812
2019-05-01T08:03:15.168Z,6.588
2019-05-01T08:06:16.249Z,7.650
2019-05-01T08:09:16.488Z,14.300
2019-05-01T08:12:18.837Z,11.875
2019-05-01T08:15:15.009Z,9.675
2019-05-01T08:18:15.295Z,7.188
2019-05-01T08:21:15.736Z,8.912
2019-05-01T08:24:17.964Z,15.350
2019-05-01T08:27:15.757Z,10.312
2019-05-01T08:30:17.417Z,10.413
2019-05-01T08:33:16.016Z,7.275
2019-05-01T08:36:15.246Z,8.787
2019-05-01T08:39:15.705Z,12.762
2019-05-01T08:42:15.212Z,9.513
2019-05-01T08:45:15.473Z,14.512
2019-05-01T08:48:15.331Z,13.162
2019-05-01T08:51:14.997Z,8.688
2019-05-01T08:54:15.128Z,8.988
2019-05-01T08:57:15.778Z,9.113
2019-05-01T09:00:15.852Z,7.987
2019-05-01T09:03:18.573Z,11.887
2019-05-01T09:06:15.768Z,14.650
2019-05-01T09:09:15.888Z,11.375
2019-05-01T09:12:15.533Z,11.387
2019-05-01T09:15:15.159Z,16.600
2019-05-01T09:18:14.977Z,12.300
2019-05-01T09:21:15.603Z,15.075
2019-05-01T09:24:15.380Z,9.463
2019-05-01T09:27:15.326Z,10.062
2019-05-01T09:30:15.844Z,9.012
2019-05-01T09:33:15.436Z,19.163
2019-05-01T09:36:15.989Z,14.162
2019-05-01T09:39:15.627Z,8.637
2019-05-01T09:42:22.870Z,11.550
2019-05-01T09:45:16.093Z,9.625
2019-05-01T09:48:15.762Z,8.338
2019-05-01T09:51:15.372Z,7.350
2019-05-01T09:54:15.445Z,6.812
2019-05-01T09:57:15.728Z,13.500
2019-05-01T10:00:16.280Z,7.075
2019-05-01T10:03:16.898Z,10.762
2019-05-01T10:06:17.139Z,9.000
2019-05-01T10:09:16.902Z,6.838
2019-05-01T10:12:15.677Z,6.375
2019-05-01T10:15:16.200Z,5.650
2019-05-01T10:18:15.821Z,12.150
2019-05-01T10:21:15.435Z,8.413
2019-05-01T10:27:17.244Z,10.625
2019-05-01T10:30:15.357Z,6.387
2019-05-01T10:33:15.416Z,10.938
2019-05-01T10:36:18.949Z,13.200
2019-05-01T10:39:19.670Z,7.988
2019-05-01T10:42:16.227Z,11.550
2019-05-01T10:45:15.820Z,11.837
2019-05-01T10:48:15.365Z,11.463
2019-05-01T10:51:15.878Z,8.250
2019-05-01T10:54:16.239Z,10.850
2019-05-01T10:57:15.801Z,8.713
2019-05-01T11:00:15.470Z,12.213
2019-05-01T11:03:15.409Z,6.900
2019-05-01T11:06:15.972Z,8.000
2019-05-01T11:09:15.821Z,8.775
2019-05-01T11:12:15.771Z,7.450
2019-05-01T11:15:15.825Z,9.863
2019-05-01T11:18:15.436Z,4.900
2019-05-01T11:21:16.045Z,6.088
2019-05-01T11:24:15.876Z,4.550
2019-05-01T11:27:15.567Z,3.875
2019-05-01T11:30:16.028Z,7.475
2019-05-01T11:33:15.679Z,5.175
2019-05-01T11:36:15.664Z,7.525
2019-05-01T11:39:15.615Z,3.675
2019-05-01T11:42:15.544Z,6.338
2019-05-01T11:45:16.254Z,5.037
2019-05-01T11:48:16.095Z,4.812
2019-05-01T11:51:15.596Z,5.875
2019-05-01T11:54:15.590Z,5.037
2019-05-01T12:00:15.539Z,5.613
2019-05-01T12:03:15.836Z,4.713
2019-05-01T12:06:22.705Z,6.037
2019-05-01T12:09:15.901Z,4.638
2019-05-01T12:12:15.508Z,7.025
2019-05-01T12:15:15.126Z,5.450
2019-05-01T12:18:15.784Z,2.913
2019-05-01T12:21:15.148Z,5.112
2019-05-01T12:24:15.431Z,2.212
2019-05-01T12:27:15.058Z,5.113
2019-05-01T12:30:15.818Z,5.412
2019-05-01T12:33:15.565Z,7.025
2019-05-01T12:36:15.005Z,3.975
2019-05-01T12:39:20.164Z,6.838
2019-05-01T12:42:14.923Z,6.175
2019-05-01T12:45:15.384Z,5.387
2019-05-01T12:48:15.176Z,4.713
2019-05-01T12:51:15.930Z,6.225
2019-05-01T12:54:15.583Z,3.400
2019-05-01T12:57:15.123Z,6.062
2019-05-01T13:00:18.028Z,3.013
2019-05-01T13:06:15.706Z,3.987
2019-05-01T13:09:15.212Z,8.312
2019-05-01T13:12:14.960Z,4.837
2019-05-01T13:15:15.006Z,4.125
2019-05-01T13:27:15.153Z,5.588
2019-05-01T13:30:15.788Z,3.850
2019-05-01T13:39:44.292Z,3.625
2019-05-01T13:45:19.391Z,2.138
2019-05-01T13:48:15.122Z,5.300
2019-05-01T13:51:15.761Z,1.475
2019-05-01T13:54:15.664Z,2.788
2019-05-01T13:57:15.387Z,3.375
2019-05-01T14:00:15.205Z,3.737
2019-05-01T14:03:15.400Z,3.375
2019-05-01T14:06:15.275Z,2.075
2019-05-01T14:09:15.664Z,2.763
2019-05-01T14:12:15.919Z,2.975
2019-05-01T14:15:15.476Z,5.037
2019-05-01T14:21:15.104Z,3.363
2019-05-01T14:24:15.223Z,4.112
2019-05-01T14:30:15.737Z,3.413
2019-05-01T14:33:15.820Z,2.750
2019-05-01T14:36:15.535Z,4.487
2019-05-01T14:39:15.091Z,2.513
2019-05-01T14:42:15.688Z,2.987
2019-05-01T14:45:15.401Z,2.338
2019-05-01T14:48:15.017Z,2.625
2019-05-01T14:51:16.287Z,3.263
2019-05-01T14:54:15.190Z,5.262
2019-05-01T14:57:15.270Z,3.625
2019-05-01T15:00:15.891Z,3.663
2019-05-01T15:03:15.548Z,3.650
2019-05-01T15:06:15.286Z,2.862
2019-05-01T15:09:15.383Z,2.550
2019-05-01T15:12:15.328Z,2.275
2019-05-01T15:15:14.910Z,3.325
2019-05-01T15:18:15.035Z,1.712
2019-05-01T15:21:15.806Z,2.163
2019-05-01T15:24:15.024Z,1.587
2019-05-01T15:27:15.592Z,4.488
2019-05-01T15:30:15.514Z,3.338
2019-05-01T15:33:15.346Z,2.938
2019-05-01T15:36:14.964Z,2.287
2019-05-01T15:39:15.659Z,3.325
2019-05-01T15:42:15.845Z,1.137
2019-05-01T15:45:15.058Z,2.162
2019-05-01T15:48:15.890Z,2.125
2019-05-01T15:51:15.523Z,1.500
2019-05-01T15:54:15.285Z,2.962
2019-05-01T15:57:15.891Z,1.925
2019-05-01T16:00:15.932Z,5.525
2019-05-01T16:03:15.690Z,3.075
2019-05-01T16:06:15.580Z,2.825
2019-05-01T16:09:15.225Z,3.337
2019-05-01T16:12:15.472Z,4.325
2019-05-01T16:15:15.943Z,3.025
2019-05-01T16:18:15.676Z,2.575
2019-05-01T16:21:15.504Z,2.638
2019-05-01T16:24:15.447Z,3.200
2019-05-01T16:27:15.074Z,2.825
2019-05-01T16:30:15.776Z,2.888
2019-05-01T16:33:15.445Z,2.288
2019-05-01T16:36:15.223Z,1.763
2019-05-01T16:39:15.667Z,2.000
2019-05-01T16:42:15.746Z,2.912
2019-05-01T16:45:15.893Z,3.075
2019-05-01T16:48:15.830Z,1.188
2019-05-01T16:51:15.508Z,3.775
2019-05-01T16:54:15.282Z,1.875
2019-05-01T16:57:15.258Z,3.875
2019-05-01T17:00:15.812Z,1.200
2019-05-01T17:03:15.212Z,1.775
2019-05-01T17:06:15.948Z,1.962
2019-05-01T17:09:15.786Z,1.337
2019-05-01T17:12:15.039Z,1.438
2019-05-01T17:15:40.168Z,1.325
2019-05-01T17:18:20.558Z,0.738
2019-05-01T17:21:15.589Z,1.750
2019-05-01T17:25:30.768Z,1.900
2019-05-01T17:27:18.312Z,1.688
2019-05-01T17:30:15.151Z,1.425
2019-05-01T17:33:20.799Z,2.225
2019-05-01T17:36:15.614Z,2.487
2019-05-01T17:39:15.311Z,1.663
2019-05-01T17:42:16.103Z,3.325
2019-05-01T17:45:16.221Z,4.475
2019-05-01T17:48:16.131Z,2.500
2019-05-01T17:51:15.393Z,1.700
2019-05-01T17:54:15.086Z,1.237
2019-05-01T17:57:15.618Z,1.400
2019-05-01T18:00:15.211Z,1.587
2019-05-01T18:03:15.881Z,2.312
2019-05-01T18:06:15.760Z,2.400
2019-05-01T18:09:15.630Z,1.375
2019-05-01T18:12:15.529Z,2.050
2019-05-01T18:15:15.848Z,1.837
2019-05-01T18:18:16.591Z,1.637
2019-05-01T18:21:15.560Z,1.212
2019-05-01T18:24:18.983Z,3.150
2019-05-01T18:27:19.031Z,3.225
2019-05-01T18:30:20.125Z,2.487
2019-05-01T18:33:15.303Z,1.337
2019-05-01T18:36:15.300Z,1.100
2019-05-01T18:39:16.649Z,0.800
2019-05-01T18:42:15.302Z,1.738
2019-05-01T18:45:27.934Z,1.188
2019-05-01T18:48:48.970Z,1.225
2019-05-01T18:51:16.435Z,1.962
2019-05-01T18:54:15.488Z,17.300
2019-05-01T19:00:15.714Z,2.425
2019-05-01T19:03:15.400Z,2.013
2019-05-01T19:06:15.417Z,2.625
2019-05-01T19:09:15.494Z,2.200
2019-05-01T19:12:15.825Z,3.425
2019-05-01T19:15:18.641Z,1.613
2019-05-01T19:18:16.378Z,2.263
2019-05-01T19:21:15.186Z,0.962
2019-05-01T19:24:15.579Z,2.737
2019-05-01T19:27:18.999Z,2.162
2019-05-01T19:33:15.734Z,1.537
2019-05-01T19:36:15.615Z,1.750
2019-05-01T19:39:15.293Z,1.025
2019-05-01T19:42:15.149Z,1.562
2019-05-01T19:48:16.233Z,2.650
2019-05-01T19:51:24.006Z,1.863
2019-05-01T19:54:15.548Z,2.513
2019-05-01T19:57:15.032Z,0.962
2019-05-01T20:00:15.783Z,2.863
2019-05-01T20:03:15.017Z,3.112
2019-05-01T20:06:19.390Z,2.712
2019-05-01T20:12:33.054Z,2.438
2019-05-01T20:15:20.090Z,1.125
2019-05-01T20:18:15.804Z,3.312
2019-05-01T20:21:16.348Z,3.100
2019-05-01T20:24:18.942Z,2.375
2019-05-01T20:27:15.331Z,2.412
2019-05-01T20:30:15.513Z,4.487
2019-05-01T20:33:15.554Z,3.550
2019-05-01T20:36:15.360Z,4.775
2019-05-01T20:48:55.834Z,5.450
2019-05-01T20:51:33.398Z,6.625
2019-05-01T20:57:21.015Z,9.550
2019-05-01T21:00:16.584Z,6.225
2019-05-01T21:03:18.182Z,7.163
2019-05-01T21:06:16.721Z,6.662
2019-05-01T21:15:19.683Z,8.588
2019-05-01T21:18:20.905Z,9.350
2019-05-01T21:21:16.119Z,8.312
2019-05-01T21:24:16.099Z,8.737
2019-05-01T21:27:15.853Z,9.650
2019-05-01T21:30:16.072Z,8.125
2019-05-01T21:33:16.879Z,12.325
2019-05-01T21:36:15.765Z,6.888
2019-05-01T21:39:17.335Z,7.037
2019-05-01T21:42:16.288Z,6.463
2019-05-01T21:45:15.522Z,6.450
2019-05-01T21:48:15.964Z,6.763
2019-05-01T21:51:15.701Z,10.662
2019-05-01T21:54:16.066Z,8.625
2019-05-01T21:57:17.436Z,10.425
2019-05-01T22:00:15.634Z,8.900
2019-05-01T22:03:16.599Z,9.100
2019-05-01T22:06:16.540Z,8.900
2019-05-01T22:09:16.535Z,10.450
2019-05-01T22:21:17.477Z,7.925
2019-05-01T22:24:15.296Z,10.038
2019-05-01T22:33:15.092Z,7.725
2019-05-01T22:36:15.694Z,8.363
2019-05-01T22:39:15.119Z,6.100
2019-05-01T22:42:15.517Z,9.400
2019-05-01T22:45:15.247Z,9.462
2019-05-01T22:48:15.054Z,8.912
2019-05-01T22:54:14.985Z,9.562
2019-05-01T22:57:15.409Z,7.650
2019-05-01T23:00:15.772Z,7.300
2019-05-01T23:03:15.417Z,8.450
2019-05-01T23:06:15.832Z,13.512
2019-05-01T23:09:15.507Z,13.425
2019-05-01T23:12:15.343Z,11.675
2019-05-01T23:15:15.642Z,10.463
2019-05-01T23:18:17.094Z,12.875
2019-05-01T23:21:16.103Z,8.150
2019-05-01T23:27:15.172Z,15.625
2019-05-01T23:30:15.022Z,11.300
2019-05-01T23:33:15.526Z,8.463
2019-05-01T23:36:23.385Z,8.338
2019-05-01T23:39:15.368Z,14.963
2019-05-01T23:42:15.752Z,10.725
2019-05-01T23:45:15.456Z,13.412
2019-05-01T23:48:15.797Z,13.125
2019-05-01T23:51:15.232Z,12.663
2019-05-01T23:54:15.389Z,17.275
2019-05-01T23:57:18.755Z,15.412
